sensor_id;sensor_type;location;lat;lon;timestamp;P1;durP1;ratioP1;P2;durP2;ratioP2
16179;SDS011;8196;49.428;10.906;2023-04-24T00:02:21;0.10;;;0.10;;
16179;SDS011;8196;49.428;10.906;2023-04-24T00:04:48;0.00;;;0.00;;
16179;SDS011;8196;49.428;10.906;2023-04-24T00:07:15;0.00;;;0.00;;
16179;SDS011;8196;49.428;10.906;2023-04-24T00:09:43;0.10;;;0.10;;
16179;SDS011;8196;49.428;10.906;2023-04-24T00:12:10;0.10;;;0.10;;
16179;SDS011;8196;49.428;10.906;2023-04-24T00:14:37;0.10;;;0.10;;
16179;SDS011;8196;49.428;10.906;2023-04-24T00:17:04;0.00;;;0.00;;
16179;SDS011;8196;49.428;10.906;2023-04-24T00:19:31;0.00;;;0.00;;
16179;SDS011;8196;49.428;10.906;2023-04-24T00:21:58;0.20;;;0.20;;
16179;SDS011;8196;49.428;10.906;2023-04-24T00:24:24;0.10;;;0.10;;
16179;SDS011;8196;49.428;10.906;2023-04-24T00:26:51;0.40;;;0.40;;
16179;SDS011;8196;49.428;10.906;2023-04-24T00:29:18;0.10;;;0.10;;
16179;SDS011;8196;49.428;10.906;2023-04-24T00:31:44;0.30;;;0.30;;
16179;SDS011;8196;49.428;10.906;2023-04-24T00:34:11;0.10;;;0.10;;
16179;SDS011;8196;49.428;10.906;2023-04-24T00:39:05;0.20;;;0.20;;
16179;SDS011;8196;49.428;10.906;2023-04-24T00:41:34;0.10;;;0.10;;
16179;SDS011;8196;49.428;10.906;2023-04-24T00:44:01;0.10;;;0.10;;
16179;SDS011;8196;49.428;10.906;2023-04-24T00:46:28;0.10;;;0.10;;
16179;SDS011;8196;49.428;10.906;2023-04-24T00:48:55;0.10;;;0.10;;
16179;SDS011;8196;49.428;10.906;2023-04-24T00:51:22;0.00;;;0.00;;
16179;SDS011;8196;49.428;10.906;2023-04-24T00:53:50;0.10;;;0.10;;
16179;SDS011;8196;49.428;10.906;2023-04-24T00:56:18;0.10;;;0.10;;
16179;SDS011;8196;49.428;10.906;2023-04-24T00:58:45;0.10;;;0.10;;
16179;SDS011;8196;49.428;10.906;2023-04-24T01:01:13;0.10;;;0.10;;
16179;SDS011;8196;49.428;10.906;2023-04-24T01:03:40;0.10;;;0.10;;
16179;SDS011;8196;49.428;10.906;2023-04-24T01:06:08;0.00;;;0.00;;
16179;SDS011;8196;49.428;10.906;2023-04-24T01:08:36;0.00;;;0.00;;
16179;SDS011;8196;49.428;10.906;2023-04-24T01:11:04;0.10;;;0.10;;
16179;SDS011;8196;49.428;10.906;2023-04-24T01:13:31;0.10;;;0.10;;
16179;SDS011;8196;49.428;10.906;2023-04-24T01:15:59;0.10;;;0.10;;
16179;SDS011;8196;49.428;10.906;2023-04-24T01:18:27;0.10;;;0.10;;
16179;SDS011;8196;49.428;10.906;2023-04-24T01:20:56;0.10;;;0.10;;
16179;SDS011;8196;49.428;10.906;2023-04-24T01:23:25;0.00;;;0.00;;
16179;SDS011;8196;49.428;10.906;2023-04-24T01:25:52;0.00;;;0.00;;
16179;SDS011;8196;49.428;10.906;2023-04-24T01:28:19;0.10;;;0.10;;
16179;SDS011;8196;49.428;10.906;2023-04-24T01:30:46;0.20;;;0.20;;
16179;SDS011;8196;49.428;10.906;2023-04-24T01:33:13;0.10;;;0.10;;
16179;SDS011;8196;49.428;10.906;2023-04-24T01:35:40;0.15;;;0.15;;
16179;SDS011;8196;49.428;10.906;2023-04-24T01:38:07;0.10;;;0.10;;
16179;SDS011;8196;49.428;10.906;2023-04-24T01:40:34;0.10;;;0.10;;
16179;SDS011;8196;49.428;10.906;2023-04-24T01:43:02;0.03;;;0.03;;
16179;SDS011;8196;49.428;10.906;2023-04-24T01:45:29;0.10;;;0.10;;
16179;SDS011;8196;49.428;10.906;2023-04-24T01:47:56;0.10;;;0.10;;
16179;SDS011;8196;49.428;10.906;2023-04-24T01:50:23;0.05;;;0.05;;
16179;SDS011;8196;49.428;10.906;2023-04-24T01:52:50;0.10;;;0.10;;
16179;SDS011;8196;49.428;10.906;2023-04-24T01:55:16;0.10;;;0.10;;
16179;SDS011;8196;49.428;10.906;2023-04-24T01:57:43;0.10;;;0.10;;
16179;SDS011;8196;49.428;10.906;2023-04-24T02:00:10;0.10;;;0.10;;
16179;SDS011;8196;49.428;10.906;2023-04-24T02:02:39;0.00;;;0.00;;
16179;SDS011;8196;49.428;10.906;2023-04-24T02:05:08;0.00;;;0.00;;
16179;SDS011;8196;49.428;10.906;2023-04-24T02:07:34;0.00;;;0.00;;
16179;SDS011;8196;49.428;10.906;2023-04-24T02:10:02;0.88;;;0.17;;
16179;SDS011;8196;49.428;10.906;2023-04-24T02:12:30;0.10;;;0.10;;
16179;SDS011;8196;49.428;10.906;2023-04-24T02:14:57;0.10;;;0.10;;
16179;SDS011;8196;49.428;10.906;2023-04-24T02:17:23;0.10;;;0.10;;
16179;SDS011;8196;49.428;10.906;2023-04-24T02:19:50;0.00;;;0.00;;
16179;SDS011;8196;49.428;10.906;2023-04-24T02:22:17;0.20;;;0.13;;
16179;SDS011;8196;49.428;10.906;2023-04-24T02:24:44;0.00;;;0.00;;
16179;SDS011;8196;49.428;10.906;2023-04-24T02:27:11;0.00;;;0.00;;
16179;SDS011;8196;49.428;10.906;2023-04-24T02:29:37;0.10;;;0.10;;
16179;SDS011;8196;49.428;10.906;2023-04-24T02:32:04;0.10;;;0.10;;
16179;SDS011;8196;49.428;10.906;2023-04-24T02:34:31;0.20;;;0.20;;
16179;SDS011;8196;49.428;10.906;2023-04-24T02:36:58;0.10;;;0.10;;
16179;SDS011;8196;49.428;10.906;2023-04-24T02:39:24;0.10;;;0.10;;
16179;SDS011;8196;49.428;10.906;2023-04-24T02:41:51;0.10;;;0.10;;
16179;SDS011;8196;49.428;10.906;2023-04-24T02:44:18;0.00;;;0.00;;
16179;SDS011;8196;49.428;10.906;2023-04-24T02:46:44;0.10;;;0.10;;
16179;SDS011;8196;49.428;10.906;2023-04-24T02:49:11;0.00;;;0.00;;
16179;SDS011;8196;49.428;10.906;2023-04-24T02:51:38;0.00;;;0.00;;
16179;SDS011;8196;49.428;10.906;2023-04-24T02:54:07;0.00;;;0.00;;
16179;SDS011;8196;49.428;10.906;2023-04-24T02:56:36;0.17;;;0.17;;
16179;SDS011;8196;49.428;10.906;2023-04-24T02:59:02;0.10;;;0.10;;
16179;SDS011;8196;49.428;10.906;2023-04-24T03:01:29;0.10;;;0.10;;
16179;SDS011;8196;49.428;10.906;2023-04-24T03:03:56;0.10;;;0.10;;
16179;SDS011;8196;49.428;10.906;2023-04-24T03:06:24;0.20;;;0.20;;
16179;SDS011;8196;49.428;10.906;2023-04-24T03:08:52;0.10;;;0.10;;
16179;SDS011;8196;49.428;10.906;2023-04-24T03:11:20;0.00;;;0.00;;
16179;SDS011;8196;49.428;10.906;2023-04-24T03:13:46;0.00;;;0.00;;
16179;SDS011;8196;49.428;10.906;2023-04-24T03:16:13;0.00;;;0.00;;
16179;SDS011;8196;49.428;10.906;2023-04-24T03:18:40;0.00;;;0.00;;
16179;SDS011;8196;49.428;10.906;2023-04-24T03:21:07;0.00;;;0.00;;
16179;SDS011;8196;49.428;10.906;2023-04-24T03:23:33;0.00;;;0.00;;
16179;SDS011;8196;49.428;10.906;2023-04-24T03:26:00;0.10;;;0.10;;
16179;SDS011;8196;49.428;10.906;2023-04-24T03:28:28;0.10;;;0.10;;
16179;SDS011;8196;49.428;10.906;2023-04-24T03:30:55;0.10;;;0.10;;
16179;SDS011;8196;49.428;10.906;2023-04-24T03:33:21;0.10;;;0.10;;
16179;SDS011;8196;49.428;10.906;2023-04-24T03:35:48;0.10;;;0.10;;
16179;SDS011;8196;49.428;10.906;2023-04-24T03:38:15;0.00;;;0.00;;
16179;SDS011;8196;49.428;10.906;2023-04-24T03:40:41;0.00;;;0.00;;
16179;SDS011;8196;49.428;10.906;2023-04-24T03:43:08;0.10;;;0.10;;
16179;SDS011;8196;49.428;10.906;2023-04-24T03:45:35;0.00;;;0.00;;
16179;SDS011;8196;49.428;10.906;2023-04-24T03:48:02;0.00;;;0.00;;
16179;SDS011;8196;49.428;10.906;2023-04-24T03:50:28;0.10;;;0.10;;
16179;SDS011;8196;49.428;10.906;2023-04-24T03:52:55;0.10;;;0.10;;
16179;SDS011;8196;49.428;10.906;2023-04-24T03:55:22;0.10;;;0.10;;
16179;SDS011;8196;49.428;10.906;2023-04-24T03:57:49;0.10;;;0.10;;
16179;SDS011;8196;49.428;10.906;2023-04-24T04:00:15;0.10;;;0.10;;
16179;SDS011;8196;49.428;10.906;2023-04-24T04:02:42;0.10;;;0.10;;
16179;SDS011;8196;49.428;10.906;2023-04-24T04:05:09;0.10;;;0.10;;
16179;SDS011;8196;49.428;10.906;2023-04-24T04:07:36;0.10;;;0.10;;
16179;SDS011;8196;49.428;10.906;2023-04-24T04:10:03;0.10;;;0.10;;
16179;SDS011;8196;49.428;10.906;2023-04-24T04:12:30;0.00;;;0.00;;
16179;SDS011;8196;49.428;10.906;2023-04-24T04:14:56;0.22;;;0.22;;
16179;SDS011;8196;49.428;10.906;2023-04-24T04:17:23;0.60;;;0.60;;
16179;SDS011;8196;49.428;10.906;2023-04-24T04:19:50;0.20;;;0.20;;
16179;SDS011;8196;49.428;10.906;2023-04-24T04:22:17;0.10;;;0.10;;
16179;SDS011;8196;49.428;10.906;2023-04-24T04:24:43;0.00;;;0.00;;
16179;SDS011;8196;49.428;10.906;2023-04-24T04:27:10;0.10;;;0.10;;
16179;SDS011;8196;49.428;10.906;2023-04-24T04:29:38;0.20;;;0.20;;
16179;SDS011;8196;49.428;10.906;2023-04-24T04:32:06;0.13;;;0.13;;
16179;SDS011;8196;49.428;10.906;2023-04-24T04:34:33;0.10;;;0.10;;
16179;SDS011;8196;49.428;10.906;2023-04-24T04:37:00;0.40;;;0.40;;
16179;SDS011;8196;49.428;10.906;2023-04-24T04:39:28;0.10;;;0.10;;
16179;SDS011;8196;49.428;10.906;2023-04-24T04:41:54;0.10;;;0.10;;
16179;SDS011;8196;49.428;10.906;2023-04-24T04:44:21;0.20;;;0.20;;
16179;SDS011;8196;49.428;10.906;2023-04-24T04:46:49;0.20;;;0.20;;
16179;SDS011;8196;49.428;10.906;2023-04-24T04:49:19;0.20;;;0.20;;
16179;SDS011;8196;49.428;10.906;2023-04-24T04:51:47;0.10;;;0.10;;
16179;SDS011;8196;49.428;10.906;2023-04-24T04:54:14;0.00;;;0.00;;
16179;SDS011;8196;49.428;10.906;2023-04-24T04:56:41;0.10;;;0.10;;
16179;SDS011;8196;49.428;10.906;2023-04-24T04:59:08;0.10;;;0.10;;
16179;SDS011;8196;49.428;10.906;2023-04-24T05:01:35;0.00;;;0.00;;
16179;SDS011;8196;49.428;10.906;2023-04-24T05:04:02;0.10;;;0.10;;
16179;SDS011;8196;49.428;10.906;2023-04-24T05:06:29;0.10;;;0.10;;
16179;SDS011;8196;49.428;10.906;2023-04-24T05:08:57;0.50;;;0.50;;
16179;SDS011;8196;49.428;10.906;2023-04-24T05:11:23;0.17;;;0.17;;
16179;SDS011;8196;49.428;10.906;2023-04-24T05:13:50;0.10;;;0.10;;
16179;SDS011;8196;49.428;10.906;2023-04-24T05:16:17;0.20;;;0.20;;
16179;SDS011;8196;49.428;10.906;2023-04-24T05:18:44;0.10;;;0.10;;
16179;SDS011;8196;49.428;10.906;2023-04-24T05:21:13;0.20;;;0.20;;
16179;SDS011;8196;49.428;10.906;2023-04-24T05:23:40;0.10;;;0.10;;
16179;SDS011;8196;49.428;10.906;2023-04-24T05:26:06;0.20;;;0.20;;
16179;SDS011;8196;49.428;10.906;2023-04-24T05:28:33;0.00;;;0.00;;
16179;SDS011;8196;49.428;10.906;2023-04-24T05:31:02;0.10;;;0.10;;
16179;SDS011;8196;49.428;10.906;2023-04-24T05:33:29;0.10;;;0.10;;
16179;SDS011;8196;49.428;10.906;2023-04-24T05:35:56;0.20;;;0.20;;
16179;SDS011;8196;49.428;10.906;2023-04-24T05:38:23;0.10;;;0.10;;
16179;SDS011;8196;49.428;10.906;2023-04-24T05:40:50;0.10;;;0.10;;
16179;SDS011;8196;49.428;10.906;2023-04-24T05:43:17;0.20;;;0.20;;
16179;SDS011;8196;49.428;10.906;2023-04-24T05:45:44;0.10;;;0.10;;
16179;SDS011;8196;49.428;10.906;2023-04-24T05:48:10;0.00;;;0.00;;
16179;SDS011;8196;49.428;10.906;2023-04-24T05:50:37;0.00;;;0.00;;
16179;SDS011;8196;49.428;10.906;2023-04-24T05:53:04;0.30;;;0.30;;
16179;SDS011;8196;49.428;10.906;2023-04-24T05:55:33;1.00;;;0.70;;
16179;SDS011;8196;49.428;10.906;2023-04-24T05:57:59;0.10;;;0.10;;
16179;SDS011;8196;49.428;10.906;2023-04-24T06:00:26;0.85;;;0.85;;
16179;SDS011;8196;49.428;10.906;2023-04-24T06:02:54;0.00;;;0.00;;
16179;SDS011;8196;49.428;10.906;2023-04-24T06:05:21;0.00;;;0.00;;
16179;SDS011;8196;49.428;10.906;2023-04-24T06:07:48;0.10;;;0.10;;
16179;SDS011;8196;49.428;10.906;2023-04-24T06:10:16;0.10;;;0.10;;
16179;SDS011;8196;49.428;10.906;2023-04-24T06:12:42;0.10;;;0.10;;
16179;SDS011;8196;49.428;10.906;2023-04-24T06:15:09;0.10;;;0.10;;
16179;SDS011;8196;49.428;10.906;2023-04-24T06:17:36;0.10;;;0.10;;
16179;SDS011;8196;49.428;10.906;2023-04-24T06:20:03;0.10;;;0.10;;
16179;SDS011;8196;49.428;10.906;2023-04-24T06:22:32;0.10;;;0.10;;
16179;SDS011;8196;49.428;10.906;2023-04-24T06:27:26;0.10;;;0.10;;
16179;SDS011;8196;49.428;10.906;2023-04-24T06:29:53;0.10;;;0.10;;
16179;SDS011;8196;49.428;10.906;2023-04-24T06:32:22;0.00;;;0.00;;
16179;SDS011;8196;49.428;10.906;2023-04-24T06:34:51;0.10;;;0.10;;
16179;SDS011;8196;49.428;10.906;2023-04-24T06:37:19;0.30;;;0.30;;
16179;SDS011;8196;49.428;10.906;2023-04-24T06:39:46;0.60;;;0.30;;
16179;SDS011;8196;49.428;10.906;2023-04-24T06:42:13;0.20;;;0.20;;
16179;SDS011;8196;49.428;10.906;2023-04-24T06:44:40;0.30;;;0.30;;
16179;SDS011;8196;49.428;10.906;2023-04-24T06:47:07;0.10;;;0.10;;
16179;SDS011;8196;49.428;10.906;2023-04-24T06:49:36;0.08;;;0.08;;
16179;SDS011;8196;49.428;10.906;2023-04-24T06:52:03;0.00;;;0.00;;
16179;SDS011;8196;49.428;10.906;2023-04-24T06:54:30;0.20;;;0.20;;
16179;SDS011;8196;49.428;10.906;2023-04-24T06:56:58;0.20;;;0.20;;
16179;SDS011;8196;49.428;10.906;2023-04-24T06:59:26;0.10;;;0.10;;
16179;SDS011;8196;49.428;10.906;2023-04-24T07:01:54;0.10;;;0.10;;
16179;SDS011;8196;49.428;10.906;2023-04-24T07:04:21;0.40;;;0.17;;
16179;SDS011;8196;49.428;10.906;2023-04-24T07:06:48;0.70;;;0.30;;
16179;SDS011;8196;49.428;10.906;2023-04-24T07:09:15;0.10;;;0.10;;
16179;SDS011;8196;49.428;10.906;2023-04-24T07:11:43;0.10;;;0.10;;
16179;SDS011;8196;49.428;10.906;2023-04-24T07:14:11;0.10;;;0.10;;
16179;SDS011;8196;49.428;10.906;2023-04-24T07:16:38;0.10;;;0.10;;
16179;SDS011;8196;49.428;10.906;2023-04-24T07:19:05;0.00;;;0.00;;
16179;SDS011;8196;49.428;10.906;2023-04-24T07:21:33;0.10;;;0.10;;
16179;SDS011;8196;49.428;10.906;2023-04-24T07:26:28;0.20;;;0.20;;
16179;SDS011;8196;49.428;10.906;2023-04-24T07:28:56;0.20;;;0.20;;
16179;SDS011;8196;49.428;10.906;2023-04-24T07:31:23;0.10;;;0.10;;
16179;SDS011;8196;49.428;10.906;2023-04-24T07:33:49;0.00;;;0.00;;
16179;SDS011;8196;49.428;10.906;2023-04-24T07:36:16;0.10;;;0.10;;
16179;SDS011;8196;49.428;10.906;2023-04-24T07:38:46;0.20;;;0.20;;
16179;SDS011;8196;49.428;10.906;2023-04-24T07:41:13;0.10;;;0.10;;
16179;SDS011;8196;49.428;10.906;2023-04-24T07:43:40;0.00;;;0.00;;
16179;SDS011;8196;49.428;10.906;2023-04-24T07:46:08;0.00;;;0.00;;
16179;SDS011;8196;49.428;10.906;2023-04-24T07:48:35;0.20;;;0.20;;
16179;SDS011;8196;49.428;10.906;2023-04-24T07:51:02;0.20;;;0.20;;
16179;SDS011;8196;49.428;10.906;2023-04-24T07:55:56;0.10;;;0.10;;
16179;SDS011;8196;49.428;10.906;2023-04-24T07:58:23;0.10;;;0.10;;
16179;SDS011;8196;49.428;10.906;2023-04-24T08:00:50;0.10;;;0.10;;
16179;SDS011;8196;49.428;10.906;2023-04-24T08:03:17;0.10;;;0.10;;
16179;SDS011;8196;49.428;10.906;2023-04-24T08:05:46;0.10;;;0.10;;
16179;SDS011;8196;49.428;10.906;2023-04-24T08:08:13;0.10;;;0.10;;
16179;SDS011;8196;49.428;10.906;2023-04-24T08:10:40;0.10;;;0.10;;
16179;SDS011;8196;49.428;10.906;2023-04-24T08:13:07;1.00;;;1.00;;
16179;SDS011;8196;49.428;10.906;2023-04-24T08:15:36;0.10;;;0.10;;
16179;SDS011;8196;49.428;10.906;2023-04-24T08:18:02;0.13;;;0.13;;
16179;SDS011;8196;49.428;10.906;2023-04-24T08:20:29;0.20;;;0.20;;
16179;SDS011;8196;49.428;10.906;2023-04-24T08:22:56;0.20;;;0.20;;
16179;SDS011;8196;49.428;10.906;2023-04-24T08:25:23;0.10;;;0.10;;
16179;SDS011;8196;49.428;10.906;2023-04-24T08:27:51;0.00;;;0.00;;
16179;SDS011;8196;49.428;10.906;2023-04-24T08:30:18;0.70;;;0.50;;
16179;SDS011;8196;49.428;10.906;2023-04-24T08:32:44;0.10;;;0.10;;
16179;SDS011;8196;49.428;10.906;2023-04-24T08:35:11;0.10;;;0.10;;
16179;SDS011;8196;49.428;10.906;2023-04-24T08:37:38;0.30;;;0.30;;
16179;SDS011;8196;49.428;10.906;2023-04-24T08:40:06;0.10;;;0.10;;
16179;SDS011;8196;49.428;10.906;2023-04-24T08:42:42;0.10;;;0.10;;
16179;SDS011;8196;49.428;10.906;2023-04-24T08:45:10;0.00;;;0.00;;
16179;SDS011;8196;49.428;10.906;2023-04-24T08:47:39;0.20;;;0.20;;
16179;SDS011;8196;49.428;10.906;2023-04-24T08:50:07;0.10;;;0.10;;
16179;SDS011;8196;49.428;10.906;2023-04-24T08:52:35;0.10;;;0.10;;
16179;SDS011;8196;49.428;10.906;2023-04-24T08:55:03;0.30;;;0.30;;
16179;SDS011;8196;49.428;10.906;2023-04-24T08:57:30;0.10;;;0.10;;
16179;SDS011;8196;49.428;10.906;2023-04-24T08:59:58;0.60;;;0.60;;
16179;SDS011;8196;49.428;10.906;2023-04-24T09:02:25;0.20;;;0.20;;
16179;SDS011;8196;49.428;10.906;2023-04-24T09:04:52;0.22;;;0.22;;
16179;SDS011;8196;49.428;10.906;2023-04-24T09:07:22;0.10;;;0.10;;
16179;SDS011;8196;49.428;10.906;2023-04-24T09:09:52;0.20;;;0.20;;
16179;SDS011;8196;49.428;10.906;2023-04-24T09:12:19;0.40;;;0.40;;
16179;SDS011;8196;49.428;10.906;2023-04-24T09:14:46;1.10;;;0.90;;
16179;SDS011;8196;49.428;10.906;2023-04-24T09:17:14;0.30;;;0.30;;
16179;SDS011;8196;49.428;10.906;2023-04-24T09:19:41;0.82;;;0.70;;
16179;SDS011;8196;49.428;10.906;2023-04-24T09:22:09;0.38;;;0.38;;
16179;SDS011;8196;49.428;10.906;2023-04-24T09:24:38;0.77;;;0.77;;
16179;SDS011;8196;49.428;10.906;2023-04-24T09:27:05;0.57;;;0.57;;
16179;SDS011;8196;49.428;10.906;2023-04-24T09:29:31;0.50;;;0.50;;
16179;SDS011;8196;49.428;10.906;2023-04-24T09:31:59;0.70;;;0.70;;
16179;SDS011;8196;49.428;10.906;2023-04-24T09:34:26;1.60;;;1.05;;
16179;SDS011;8196;49.428;10.906;2023-04-24T09:36:54;1.10;;;0.95;;
16179;SDS011;8196;49.428;10.906;2023-04-24T09:39:21;1.17;;;1.02;;
16179;SDS011;8196;49.428;10.906;2023-04-24T09:41:55;2.10;;;0.65;;
16179;SDS011;8196;49.428;10.906;2023-04-24T09:44:24;1.00;;;0.88;;
16179;SDS011;8196;49.428;10.906;2023-04-24T09:46:53;0.80;;;0.80;;
16179;SDS011;8196;49.428;10.906;2023-04-24T09:49:23;1.38;;;1.27;;
16179;SDS011;8196;49.428;10.906;2023-04-24T09:52:12;1.25;;;1.13;;
16179;SDS011;8196;49.428;10.906;2023-04-24T09:54:41;1.00;;;1.00;;
16179;SDS011;8196;49.428;10.906;2023-04-24T09:57:08;1.15;;;1.05;;
16179;SDS011;8196;49.428;10.906;2023-04-24T09:59:35;2.03;;;1.00;;
16179;SDS011;8196;49.428;10.906;2023-04-24T10:02:16;1.58;;;1.10;;
16179;SDS011;8196;49.428;10.906;2023-04-24T10:05:00;0.95;;;0.95;;
16179;SDS011;8196;49.428;10.906;2023-04-24T10:07:27;1.20;;;0.90;;
16179;SDS011;8196;49.428;10.906;2023-04-24T10:09:54;0.93;;;0.82;;
16179;SDS011;8196;49.428;10.906;2023-04-24T10:12:21;1.42;;;0.88;;
16179;SDS011;8196;49.428;10.906;2023-04-24T10:14:49;0.73;;;0.73;;
16179;SDS011;8196;49.428;10.906;2023-04-24T10:17:16;0.70;;;0.70;;
16179;SDS011;8196;49.428;10.906;2023-04-24T10:19:43;1.00;;;0.90;;
16179;SDS011;8196;49.428;10.906;2023-04-24T10:22:12;1.60;;;0.87;;
16179;SDS011;8196;49.428;10.906;2023-04-24T10:24:42;1.60;;;1.00;;
16179;SDS011;8196;49.428;10.906;2023-04-24T10:27:10;2.58;;;0.70;;
16179;SDS011;8196;49.428;10.906;2023-04-24T10:29:38;1.00;;;0.90;;
16179;SDS011;8196;49.428;10.906;2023-04-24T10:32:07;2.90;;;0.80;;
16179;SDS011;8196;49.428;10.906;2023-04-24T10:34:35;0.75;;;0.75;;
16179;SDS011;8196;49.428;10.906;2023-04-24T10:37:02;0.70;;;0.70;;
16179;SDS011;8196;49.428;10.906;2023-04-24T10:39:29;1.13;;;0.90;;
16179;SDS011;8196;49.428;10.906;2023-04-24T10:44:27;1.33;;;0.98;;
16179;SDS011;8196;49.428;10.906;2023-04-24T10:47:03;1.38;;;1.13;;
16179;SDS011;8196;49.428;10.906;2023-04-24T10:49:30;0.85;;;0.80;;
16179;SDS011;8196;49.428;10.906;2023-04-24T10:52:02;1.70;;;0.70;;
16179;SDS011;8196;49.428;10.906;2023-04-24T10:54:36;1.05;;;0.95;;
16179;SDS011;8196;49.428;10.906;2023-04-24T11:00:13;1.08;;;1.05;;
16179;SDS011;8196;49.428;10.906;2023-04-24T11:02:41;0.73;;;0.70;;
16179;SDS011;8196;49.428;10.906;2023-04-24T11:05:16;2.00;;;1.00;;
16179;SDS011;8196;49.428;10.906;2023-04-24T11:10:58;1.98;;;1.17;;
16179;SDS011;8196;49.428;10.906;2023-04-24T11:16:25;1.35;;;1.20;;
16179;SDS011;8196;49.428;10.906;2023-04-24T11:21:45;1.33;;;1.23;;
16179;SDS011;8196;49.428;10.906;2023-04-24T11:27:06;2.63;;;1.48;;
16179;SDS011;8196;49.428;10.906;2023-04-24T11:34:59;1.50;;;1.40;;
16179;SDS011;8196;49.428;10.906;2023-04-24T11:37:28;1.90;;;1.43;;
16179;SDS011;8196;49.428;10.906;2023-04-24T11:40:03;3.00;;;1.42;;
16179;SDS011;8196;49.428;10.906;2023-04-24T11:42:35;1.30;;;1.20;;
16179;SDS011;8196;49.428;10.906;2023-04-24T11:45:07;1.20;;;1.10;;
16179;SDS011;8196;49.428;10.906;2023-04-24T11:47:34;1.25;;;1.15;;
16179;SDS011;8196;49.428;10.906;2023-04-24T11:50:01;1.20;;;1.10;;
16179;SDS011;8196;49.428;10.906;2023-04-24T11:52:30;1.25;;;1.15;;
16179;SDS011;8196;49.428;10.906;2023-04-24T11:54:57;2.10;;;1.30;;
16179;SDS011;8196;49.428;10.906;2023-04-24T11:57:24;1.35;;;1.25;;
16179;SDS011;8196;49.428;10.906;2023-04-24T11:59:55;1.65;;;1.50;;
16179;SDS011;8196;49.428;10.906;2023-04-24T12:02:23;2.17;;;1.40;;
16179;SDS011;8196;49.428;10.906;2023-04-24T12:04:52;1.37;;;1.27;;
16179;SDS011;8196;49.428;10.906;2023-04-24T12:07:20;1.92;;;1.30;;
16179;SDS011;8196;49.428;10.906;2023-04-24T12:09:50;2.13;;;1.50;;
16179;SDS011;8196;49.428;10.906;2023-04-24T12:12:23;1.83;;;1.57;;
16179;SDS011;8196;49.428;10.906;2023-04-24T12:14:52;1.55;;;1.45;;
16179;SDS011;8196;49.428;10.906;2023-04-24T12:17:24;1.63;;;1.40;;
16179;SDS011;8196;49.428;10.906;2023-04-24T12:20:10;1.90;;;1.50;;
16179;SDS011;8196;49.428;10.906;2023-04-24T12:22:53;1.17;;;1.08;;
16179;SDS011;8196;49.428;10.906;2023-04-24T12:25:23;1.27;;;1.17;;
16179;SDS011;8196;49.428;10.906;2023-04-24T12:27:52;1.10;;;1.00;;
16179;SDS011;8196;49.428;10.906;2023-04-24T12:30:21;1.90;;;1.20;;
16179;SDS011;8196;49.428;10.906;2023-04-24T12:32:54;1.30;;;1.20;;
16179;SDS011;8196;49.428;10.906;2023-04-24T12:35:24;1.40;;;1.17;;
16179;SDS011;8196;49.428;10.906;2023-04-24T12:37:52;1.42;;;1.33;;
16179;SDS011;8196;49.428;10.906;2023-04-24T12:40:19;1.70;;;1.40;;
16179;SDS011;8196;49.428;10.906;2023-04-24T12:42:48;1.33;;;1.23;;
16179;SDS011;8196;49.428;10.906;2023-04-24T12:45:16;1.60;;;1.40;;
16179;SDS011;8196;49.428;10.906;2023-04-24T12:47:44;1.73;;;1.40;;
16179;SDS011;8196;49.428;10.906;2023-04-24T12:50:13;2.28;;;1.27;;
16179;SDS011;8196;49.428;10.906;2023-04-24T12:52:41;1.83;;;1.40;;
16179;SDS011;8196;49.428;10.906;2023-04-24T12:55:08;1.90;;;1.65;;
16179;SDS011;8196;49.428;10.906;2023-04-24T12:57:36;1.70;;;1.58;;
16179;SDS011;8196;49.428;10.906;2023-04-24T13:00:05;2.00;;;1.38;;
16179;SDS011;8196;49.428;10.906;2023-04-24T13:02:33;1.30;;;1.20;;
16179;SDS011;8196;49.428;10.906;2023-04-24T13:05:01;1.87;;;1.40;;
16179;SDS011;8196;49.428;10.906;2023-04-24T13:07:28;1.60;;;1.13;;
16179;SDS011;8196;49.428;10.906;2023-04-24T13:09:55;2.72;;;1.40;;
16179;SDS011;8196;49.428;10.906;2023-04-24T13:12:23;1.50;;;1.30;;
16179;SDS011;8196;49.428;10.906;2023-04-24T13:14:51;2.30;;;1.40;;
16179;SDS011;8196;49.428;10.906;2023-04-24T13:17:18;1.40;;;1.30;;
16179;SDS011;8196;49.428;10.906;2023-04-24T13:19:46;2.33;;;1.30;;
16179;SDS011;8196;49.428;10.906;2023-04-24T13:22:12;1.60;;;1.50;;
16179;SDS011;8196;49.428;10.906;2023-04-24T13:24:39;1.33;;;1.20;;
16179;SDS011;8196;49.428;10.906;2023-04-24T13:27:08;1.88;;;1.30;;
16179;SDS011;8196;49.428;10.906;2023-04-24T13:29:35;1.30;;;1.20;;
16179;SDS011;8196;49.428;10.906;2023-04-24T13:32:03;1.95;;;1.50;;
16179;SDS011;8196;49.428;10.906;2023-04-24T13:34:30;2.58;;;2.00;;
16179;SDS011;8196;49.428;10.906;2023-04-24T13:36:57;2.00;;;1.77;;
16179;SDS011;8196;49.428;10.906;2023-04-24T13:39:25;2.00;;;1.77;;
16179;SDS011;8196;49.428;10.906;2023-04-24T13:41:52;2.88;;;2.00;;
16179;SDS011;8196;49.428;10.906;2023-04-24T13:44:20;2.25;;;2.08;;
16179;SDS011;8196;49.428;10.906;2023-04-24T13:46:49;2.60;;;2.30;;
16179;SDS011;8196;49.428;10.906;2023-04-24T13:49:18;2.92;;;2.20;;
16179;SDS011;8196;49.428;10.906;2023-04-24T13:51:45;2.75;;;1.95;;
16179;SDS011;8196;49.428;10.906;2023-04-24T13:54:12;1.92;;;1.60;;
16179;SDS011;8196;49.428;10.906;2023-04-24T13:56:40;2.75;;;1.92;;
16179;SDS011;8196;49.428;10.906;2023-04-24T13:59:07;1.98;;;1.40;;
16179;SDS011;8196;49.428;10.906;2023-04-24T14:01:34;2.20;;;1.30;;
16179;SDS011;8196;49.428;10.906;2023-04-24T14:04:02;1.63;;;1.42;;
16179;SDS011;8196;49.428;10.906;2023-04-24T14:06:29;2.88;;;1.73;;
16179;SDS011;8196;49.428;10.906;2023-04-24T14:08:56;2.20;;;1.48;;
16179;SDS011;8196;49.428;10.906;2023-04-24T14:11:22;2.17;;;1.70;;
16179;SDS011;8196;49.428;10.906;2023-04-24T14:13:49;1.70;;;1.50;;
16179;SDS011;8196;49.428;10.906;2023-04-24T14:16:16;1.50;;;1.40;;
16179;SDS011;8196;49.428;10.906;2023-04-24T14:18:43;1.65;;;1.42;;
16179;SDS011;8196;49.428;10.906;2023-04-24T14:21:10;4.30;;;1.40;;
16179;SDS011;8196;49.428;10.906;2023-04-24T14:23:37;1.40;;;1.30;;
16179;SDS011;8196;49.428;10.906;2023-04-24T14:26:03;1.95;;;1.70;;
16179;SDS011;8196;49.428;10.906;2023-04-24T14:28:30;1.80;;;1.60;;
16179;SDS011;8196;49.428;10.906;2023-04-24T14:30:58;1.60;;;1.50;;
16179;SDS011;8196;49.428;10.906;2023-04-24T14:33:25;1.83;;;1.50;;
16179;SDS011;8196;49.428;10.906;2023-04-24T14:35:52;1.60;;;1.50;;
16179;SDS011;8196;49.428;10.906;2023-04-24T14:38:18;3.17;;;1.70;;
16179;SDS011;8196;49.428;10.906;2023-04-24T14:40:46;1.23;;;1.13;;
16179;SDS011;8196;49.428;10.906;2023-04-24T14:43:15;2.00;;;0.98;;
16179;SDS011;8196;49.428;10.906;2023-04-24T14:45:43;1.00;;;0.90;;
16179;SDS011;8196;49.428;10.906;2023-04-24T14:48:10;1.00;;;0.90;;
16179;SDS011;8196;49.428;10.906;2023-04-24T14:50:37;0.85;;;0.80;;
16179;SDS011;8196;49.428;10.906;2023-04-24T14:53:04;1.10;;;1.00;;
16179;SDS011;8196;49.428;10.906;2023-04-24T14:55:31;1.35;;;1.25;;
16179;SDS011;8196;49.428;10.906;2023-04-24T14:57:59;1.50;;;1.35;;
16179;SDS011;8196;49.428;10.906;2023-04-24T15:00:26;1.57;;;1.47;;
16179;SDS011;8196;49.428;10.906;2023-04-24T15:02:52;2.63;;;1.70;;
16179;SDS011;8196;49.428;10.906;2023-04-24T15:05:21;2.30;;;1.70;;
16179;SDS011;8196;49.428;10.906;2023-04-24T15:07:48;2.10;;;1.90;;
16179;SDS011;8196;49.428;10.906;2023-04-24T15:10:16;2.10;;;1.90;;
16179;SDS011;8196;49.428;10.906;2023-04-24T15:12:43;2.57;;;2.30;;
16179;SDS011;8196;49.428;10.906;2023-04-24T15:15:10;2.33;;;2.13;;
16179;SDS011;8196;49.428;10.906;2023-04-24T15:17:37;2.10;;;1.95;;
16179;SDS011;8196;49.428;10.906;2023-04-24T15:20:04;2.40;;;2.10;;
16179;SDS011;8196;49.428;10.906;2023-04-24T15:22:32;2.90;;;2.10;;
16179;SDS011;8196;49.428;10.906;2023-04-24T15:24:59;2.40;;;2.20;;